createdAt,value
2023-05-18T00:00:12.411Z,0.00
2023-05-18T00:01:12.380Z,0.00
2023-05-18T00:02:12.397Z,0.00
2023-05-18T00:03:12.495Z,0.00
2023-05-18T00:04:12.394Z,0.00
2023-05-18T00:05:12.312Z,0.00
2023-05-18T00:06:12.357Z,0.00
2023-05-18T00:07:12.324Z,0.00
2023-05-18T00:08:12.334Z,0.00
2023-05-18T00:09:12.293Z,0.00
2023-05-18T00:10:12.346Z,0.00
2023-05-18T00:11:12.267Z,0.00
2023-05-18T00:12:12.255Z,0.00
2023-05-18T00:13:12.212Z,0.00
2023-05-18T00:14:12.252Z,0.00
2023-05-18T00:15:12.186Z,0.00
2023-05-18T00:16:12.284Z,0.00
2023-05-18T00:17:12.161Z,0.00
2023-05-18T00:18:12.272Z,0.00
2023-05-18T00:19:12.161Z,0.00
2023-05-18T00:20:12.145Z,0.00
2023-05-18T00:21:12.134Z,0.00
2023-05-18T00:22:12.135Z,0.00
2023-05-18T00:23:12.087Z,0.00
2023-05-18T00:24:12.099Z,0.00
2023-05-18T00:25:12.051Z,0.00
2023-05-18T00:26:12.097Z,0.00
2023-05-18T00:27:12.063Z,0.00
2023-05-18T00:28:12.073Z,0.00
2023-05-18T00:29:11.996Z,0.00
2023-05-18T00:30:12.025Z,0.00
2023-05-18T00:31:12.043Z,0.00
2023-05-18T00:32:12.013Z,0.00
2023-05-18T00:33:11.962Z,0.00
2023-05-18T00:34:11.966Z,0.00
2023-05-18T00:35:11.936Z,0.00
2023-05-18T00:36:11.952Z,0.00
2023-05-18T00:37:11.953Z,0.00
2023-05-18T00:38:11.907Z,0.00
2023-05-18T00:39:11.901Z,0.00
2023-05-18T00:40:11.904Z,0.00
2023-05-18T00:41:11.880Z,0.00
2023-05-18T00:42:11.886Z,0.00
2023-05-18T00:43:11.853Z,0.00
2023-05-18T00:44:11.864Z,0.00
2023-05-18T00:45:11.817Z,0.00
2023-05-18T00:46:11.907Z,0.00
2023-05-18T00:47:11.797Z,0.00
2023-05-18T00:48:11.808Z,0.00
2023-05-18T00:49:11.759Z,0.00
2023-05-18T00:50:11.758Z,0.00
2023-05-18T00:51:11.750Z,0.00
2023-05-18T00:52:11.763Z,0.00
2023-05-18T00:53:11.707Z,0.00
2023-05-18T00:54:11.735Z,0.00
2023-05-18T00:55:11.699Z,0.00
2023-05-18T00:56:11.684Z,0.00
2023-05-18T00:57:11.663Z,0.00
2023-05-18T00:58:11.674Z,0.00
2023-05-18T00:59:11.702Z,0.00
2023-05-18T01:00:11.634Z,0.00
2023-05-18T01:01:11.630Z,0.00
2023-05-18T01:02:11.644Z,0.00
2023-05-18T01:03:11.737Z,0.00
2023-05-18T01:04:11.599Z,0.00
2023-05-18T01:05:11.627Z,0.00
2023-05-18T01:06:11.580Z,0.00
2023-05-18T01:07:11.557Z,0.00
2023-05-18T01:08:11.533Z,0.00
2023-05-18T01:09:11.512Z,0.00
2023-05-18T01:10:11.520Z,0.00
2023-05-18T01:11:11.569Z,0.00
2023-05-18T01:12:11.492Z,0.00
2023-05-18T01:13:11.459Z,0.00
2023-05-18T01:14:11.484Z,0.00
2023-05-18T01:15:11.447Z,0.00
2023-05-18T01:16:11.434Z,0.00
2023-05-18T01:17:11.458Z,0.00
2023-05-18T01:18:11.433Z,0.00
2023-05-18T01:19:11.395Z,0.00
2023-05-18T01:20:11.437Z,0.00
2023-05-18T01:21:11.353Z,0.00
2023-05-18T01:22:11.362Z,0.00
2023-05-18T01:23:11.328Z,0.00
2023-05-18T01:24:11.332Z,0.00
2023-05-18T01:25:11.313Z,0.00
2023-05-18T01:26:11.306Z,0.00
2023-05-18T01:27:11.281Z,0.00
2023-05-18T01:28:11.294Z,0.00
2023-05-18T01:29:11.261Z,0.00
2023-05-18T01:30:11.263Z,0.00
2023-05-18T01:31:11.329Z,0.00
2023-05-18T01:32:11.265Z,0.00
2023-05-18T01:33:11.221Z,0.00
2023-05-18T01:34:11.192Z,0.00
2023-05-18T01:35:11.158Z,0.00
2023-05-18T01:36:11.185Z,0.00
2023-05-18T01:37:11.144Z,0.00
2023-05-18T01:38:11.167Z,0.00
2023-05-18T01:39:11.134Z,0.00
2023-05-18T01:40:11.123Z,0.00
2023-05-18T01:41:11.068Z,0.00
2023-05-18T01:42:11.084Z,0.00
2023-05-18T01:43:11.051Z,0.00
2023-05-18T01:44:11.104Z,0.00
2023-05-18T01:45:11.043Z,0.00
2023-05-18T01:46:11.067Z,0.00
2023-05-18T01:47:11.005Z,0.00
2023-05-18T01:48:11.019Z,0.00
2023-05-18T01:49:11.033Z,0.00
2023-05-18T01:50:10.972Z,0.00
2023-05-18T01:51:10.976Z,0.00
2023-05-18T01:52:10.939Z,0.00
2023-05-18T01:53:10.964Z,0.00
2023-05-18T01:54:10.972Z,0.00
2023-05-18T01:55:10.938Z,0.00
2023-05-18T01:56:10.890Z,0.00
2023-05-18T01:57:10.885Z,0.00
2023-05-18T01:58:10.871Z,0.00
2023-05-18T01:59:10.885Z,0.00
2023-05-18T02:00:10.827Z,0.00
2023-05-18T02:01:10.853Z,0.00
2023-05-18T02:02:10.842Z,0.00
2023-05-18T02:03:10.892Z,0.00
2023-05-18T02:04:11.009Z,0.00
2023-05-18T02:05:10.798Z,0.00
2023-05-18T02:06:10.783Z,0.00
2023-05-18T02:07:10.765Z,0.00
2023-05-18T02:08:10.746Z,0.00
2023-05-18T02:09:10.747Z,0.00
2023-05-18T02:10:10.710Z,0.00
2023-05-18T02:11:10.735Z,0.00
2023-05-18T02:12:10.662Z,0.00
2023-05-18T02:13:10.686Z,0.00
2023-05-18T02:14:10.679Z,0.00
2023-05-18T02:15:10.687Z,0.00
2023-05-18T02:16:10.664Z,0.00
2023-05-18T02:17:10.647Z,0.00
2023-05-18T02:18:10.623Z,0.00
2023-05-18T02:19:10.696Z,0.00
2023-05-18T02:20:10.583Z,0.00
2023-05-18T02:21:10.569Z,0.00
2023-05-18T02:22:10.537Z,0.00
2023-05-18T02:23:10.561Z,0.00
2023-05-18T02:24:10.535Z,0.00
2023-05-18T02:25:10.561Z,0.00
2023-05-18T02:26:10.527Z,0.00
2023-05-18T02:27:10.506Z,0.00
2023-05-18T02:28:10.464Z,0.00
2023-05-18T02:29:10.488Z,0.00
2023-05-18T02:30:10.451Z,0.00
2023-05-18T02:31:10.450Z,0.00
2023-05-18T02:32:10.594Z,0.00
2023-05-18T02:33:10.466Z,0.00
2023-05-18T02:34:10.430Z,0.00
2023-05-18T02:35:10.426Z,0.00
2023-05-18T02:36:10.360Z,0.00
2023-05-18T02:37:10.373Z,0.00
2023-05-18T02:38:10.344Z,0.00
2023-05-18T02:39:10.400Z,0.00
2023-05-18T02:40:10.330Z,0.00
2023-05-18T02:41:10.327Z,0.00
2023-05-18T02:42:10.311Z,0.00
2023-05-18T02:43:10.343Z,0.00
2023-05-18T02:44:10.257Z,0.00
2023-05-18T02:45:10.262Z,0.00
2023-05-18T02:46:10.311Z,0.00
2023-05-18T02:47:10.239Z,0.00
2023-05-18T02:48:10.272Z,0.00
2023-05-18T02:49:10.203Z,0.00
2023-05-18T02:50:10.171Z,0.00
2023-05-18T02:51:10.211Z,0.00
2023-05-18T02:52:10.171Z,0.00
2023-05-18T02:53:10.159Z,0.00
2023-05-18T02:54:10.128Z,0.00
2023-05-18T02:55:10.154Z,0.00
2023-05-18T02:56:10.109Z,0.00
2023-05-18T02:57:10.137Z,0.00
2023-05-18T02:58:10.079Z,0.00
2023-05-18T02:59:10.128Z,0.00
2023-05-18T03:00:10.130Z,0.00
2023-05-18T03:01:10.111Z,0.00
2023-05-18T03:02:10.079Z,0.00
2023-05-18T03:03:10.154Z,0.00
2023-05-18T03:04:10.012Z,0.00
2023-05-18T03:05:10.044Z,0.00
2023-05-18T03:06:09.977Z,0.00
2023-05-18T03:07:10.013Z,0.00
2023-05-18T03:08:09.953Z,0.00
2023-05-18T03:09:09.963Z,0.00
2023-05-18T03:10:09.928Z,0.00
2023-05-18T03:11:09.926Z,0.00
2023-05-18T03:12:09.927Z,0.00
2023-05-18T03:13:09.918Z,0.00
2023-05-18T03:14:09.874Z,0.00
2023-05-18T03:15:09.877Z,0.00
2023-05-18T03:16:09.839Z,0.00
2023-05-18T03:17:09.914Z,0.00
2023-05-18T03:18:09.849Z,0.00
2023-05-18T03:19:09.847Z,0.00
2023-05-18T03:20:09.807Z,0.00
2023-05-18T03:21:09.807Z,0.00
2023-05-18T03:22:09.801Z,0.00
2023-05-18T03:23:09.770Z,0.00
2023-05-18T03:24:09.736Z,0.00
2023-05-18T03:25:09.760Z,0.00
2023-05-18T03:26:09.719Z,0.00
2023-05-18T03:27:09.746Z,0.00
2023-05-18T03:28:09.712Z,0.00
2023-05-18T03:29:09.714Z,0.00
2023-05-18T03:30:09.683Z,0.00
2023-05-18T03:31:09.696Z,0.00
2023-05-18T03:32:09.666Z,4.00
2023-05-18T03:33:09.704Z,4.00
2023-05-18T03:34:09.607Z,0.00
2023-05-18T03:35:09.618Z,0.00
2023-05-18T03:36:09.581Z,0.00
2023-05-18T03:37:09.629Z,0.00
2023-05-18T03:38:09.565Z,4.00
2023-05-18T03:39:09.597Z,0.00
2023-05-18T03:40:09.535Z,0.00
2023-05-18T03:41:09.560Z,0.00
2023-05-18T03:42:09.532Z,4.00
2023-05-18T03:43:09.519Z,4.00
2023-05-18T03:44:09.511Z,0.00
2023-05-18T03:45:09.494Z,4.00
2023-05-18T03:46:09.526Z,4.00
2023-05-18T03:47:09.469Z,4.00
2023-05-18T03:48:09.468Z,4.00
2023-05-18T03:49:09.478Z,4.00
2023-05-18T03:50:09.408Z,8.00
2023-05-18T03:51:09.445Z,4.00
2023-05-18T03:52:09.372Z,4.00
2023-05-18T03:53:09.388Z,8.00
2023-05-18T03:54:09.365Z,4.00
2023-05-18T03:55:09.371Z,8.00
2023-05-18T03:56:09.326Z,4.00
2023-05-18T03:57:09.364Z,8.00
2023-05-18T03:58:09.288Z,8.00
2023-05-18T03:59:09.305Z,8.00
2023-05-18T04:00:09.298Z,8.00
2023-05-18T04:01:09.301Z,12.00
2023-05-18T04:02:09.329Z,8.00
2023-05-18T04:03:09.331Z,12.00
2023-05-18T04:04:09.287Z,8.00
2023-05-18T04:05:09.238Z,12.00
2023-05-18T04:06:09.191Z,8.00
2023-05-18T04:07:09.237Z,12.00
2023-05-18T04:08:09.194Z,12.00
2023-05-18T04:09:09.211Z,12.00
2023-05-18T04:10:09.167Z,16.00
2023-05-18T04:11:09.148Z,12.00
2023-05-18T04:12:09.112Z,16.00
2023-05-18T04:13:09.134Z,16.00
2023-05-18T04:14:09.123Z,16.00
2023-05-18T04:15:09.118Z,12.00
2023-05-18T04:16:09.095Z,16.00
2023-05-18T04:17:09.067Z,16.00
2023-05-18T04:18:09.095Z,20.00
2023-05-18T04:19:09.098Z,16.00
2023-05-18T04:20:09.029Z,20.00
2023-05-18T04:21:09.037Z,20.00
2023-05-18T04:22:08.980Z,20.00
2023-05-18T04:23:09.002Z,20.00
2023-05-18T04:24:08.993Z,24.00
2023-05-18T04:25:08.993Z,20.00
2023-05-18T04:26:08.933Z,20.00
2023-05-18T04:27:08.946Z,24.00
2023-05-18T04:28:08.914Z,24.00
2023-05-18T04:29:08.930Z,24.00
2023-05-18T04:30:08.939Z,28.00
2023-05-18T04:31:08.902Z,28.00
2023-05-18T04:32:09.081Z,24.00
2023-05-18T04:33:08.986Z,28.00
2023-05-18T04:34:08.849Z,28.00
2023-05-18T04:35:08.843Z,32.00
2023-05-18T04:36:08.796Z,28.00
2023-05-18T04:37:08.821Z,32.00
2023-05-18T04:38:08.772Z,28.00
2023-05-18T04:39:08.811Z,32.00
2023-05-18T04:40:08.768Z,32.00
2023-05-18T04:41:08.786Z,32.00
2023-05-18T04:42:08.737Z,32.00
2023-05-18T04:43:08.748Z,36.00
2023-05-18T04:44:08.719Z,36.00
2023-05-18T04:45:08.711Z,36.00
2023-05-18T04:46:08.744Z,36.00
2023-05-18T04:47:08.881Z,36.00
2023-05-18T04:48:08.680Z,36.00
2023-05-18T04:49:08.682Z,40.00
2023-05-18T04:50:08.623Z,40.00
2023-05-18T04:51:08.654Z,40.00
2023-05-18T04:52:08.600Z,40.00
2023-05-18T04:53:08.603Z,40.00
2023-05-18T04:54:08.559Z,40.00
2023-05-18T04:55:08.582Z,40.00
2023-05-18T04:56:08.557Z,44.00
2023-05-18T04:57:08.601Z,40.00
2023-05-18T04:58:08.523Z,44.00
2023-05-18T04:59:08.541Z,40.00
2023-05-18T05:00:08.487Z,44.00
2023-05-18T05:01:08.518Z,44.00
2023-05-18T05:02:08.484Z,44.00
2023-05-18T05:03:08.572Z,44.00
2023-05-18T05:04:08.445Z,48.00
2023-05-18T05:05:09.118Z,48.00
2023-05-18T05:06:08.418Z,44.00
2023-05-18T05:07:08.444Z,48.00
2023-05-18T05:08:08.385Z,48.00
2023-05-18T05:09:08.421Z,48.00
2023-05-18T05:10:08.389Z,48.00
2023-05-18T05:11:08.364Z,52.00
2023-05-18T05:12:08.350Z,48.00
2023-05-18T05:13:08.333Z,52.00
2023-05-18T05:14:08.305Z,48.00
2023-05-18T05:15:08.309Z,52.00
2023-05-18T05:16:08.335Z,52.00
2023-05-18T05:17:08.300Z,52.00
2023-05-18T05:18:08.364Z,52.00
2023-05-18T05:19:08.369Z,56.00
2023-05-18T05:20:08.251Z,56.00
2023-05-18T05:21:08.231Z,56.00
2023-05-18T05:22:08.204Z,56.00
2023-05-18T05:23:08.430Z,60.00
2023-05-18T05:24:08.195Z,56.00
2023-05-18T05:25:08.191Z,60.00
2023-05-18T05:26:08.167Z,60.00
2023-05-18T05:27:08.155Z,60.00
2023-05-18T05:28:08.116Z,60.00
2023-05-18T05:29:08.147Z,60.00
2023-05-18T05:30:08.106Z,60.00
2023-05-18T05:31:08.136Z,60.00
2023-05-18T05:32:08.083Z,64.00
2023-05-18T05:33:08.195Z,64.00
2023-05-18T05:34:08.034Z,64.00
2023-05-18T05:35:08.109Z,64.00
2023-05-18T05:36:08.042Z,64.00
2023-05-18T05:37:08.062Z,68.00
2023-05-18T05:38:07.987Z,64.00
2023-05-18T05:39:08.004Z,64.00
2023-05-18T05:40:08.016Z,68.00
2023-05-18T05:41:07.989Z,68.00
2023-05-18T05:42:07.939Z,68.00
2023-05-18T05:43:07.954Z,68.00
2023-05-18T05:44:07.965Z,68.00
2023-05-18T05:45:07.968Z,68.00
2023-05-18T05:46:07.910Z,72.00
2023-05-18T05:47:07.974Z,68.00
2023-05-18T05:48:07.900Z,72.00
2023-05-18T05:49:07.884Z,72.00
2023-05-18T05:50:07.857Z,72.00
2023-05-18T05:51:07.864Z,72.00
2023-05-18T05:52:07.816Z,72.00
2023-05-18T05:53:07.832Z,72.00
2023-05-18T05:54:09.991Z,76.00
2023-05-18T05:55:07.823Z,76.00
2023-05-18T05:56:07.753Z,76.00
2023-05-18T05:57:07.790Z,76.00
2023-05-18T05:58:07.772Z,76.00
2023-05-18T05:59:07.768Z,76.00
2023-05-18T06:00:07.757Z,80.00
2023-05-18T06:01:07.720Z,76.00
2023-05-18T06:02:07.758Z,80.00
2023-05-18T06:03:07.730Z,80.00
2023-05-18T06:04:07.753Z,80.00
2023-05-18T06:05:07.680Z,80.00
2023-05-18T06:06:07.677Z,84.00
2023-05-18T06:07:07.626Z,80.00
2023-05-18T06:08:07.647Z,84.00
2023-05-18T06:09:07.640Z,80.00
2023-05-18T06:10:07.633Z,84.00
2023-05-18T06:11:10.681Z,84.00
2023-05-18T06:12:07.592Z,88.00
2023-05-18T06:13:07.545Z,84.00
2023-05-18T06:14:07.577Z,84.00
2023-05-18T06:15:07.528Z,88.00
2023-05-18T06:16:07.610Z,84.00
2023-05-18T06:17:07.531Z,88.00
2023-05-18T06:18:07.535Z,88.00
2023-05-18T06:19:07.514Z,88.00
2023-05-18T06:20:07.523Z,88.00
2023-05-18T06:21:07.457Z,88.00
2023-05-18T06:22:07.465Z,88.00
2023-05-18T06:23:07.438Z,92.00
2023-05-18T06:24:07.478Z,92.00
2023-05-18T06:25:07.393Z,92.00
2023-05-18T06:26:07.481Z,92.00
2023-05-18T06:27:07.377Z,96.00
2023-05-18T06:28:07.414Z,96.00
2023-05-18T06:29:07.335Z,96.00
2023-05-18T06:30:07.379Z,100.00
2023-05-18T06:31:07.322Z,100.00
2023-05-18T06:32:07.406Z,104.00
2023-05-18T06:33:07.388Z,100.00
2023-05-18T06:34:07.317Z,104.00
2023-05-18T06:35:07.283Z,108.00
2023-05-18T06:36:07.268Z,108.00
2023-05-18T06:37:07.261Z,112.00
2023-05-18T06:38:07.247Z,112.00
2023-05-18T06:39:07.216Z,112.00
2023-05-18T06:40:07.220Z,116.00
2023-05-18T06:41:07.193Z,120.00
2023-05-18T06:42:07.212Z,120.00
2023-05-18T06:43:07.163Z,120.00
2023-05-18T06:44:07.153Z,128.00
2023-05-18T06:45:07.156Z,128.00
2023-05-18T06:46:07.163Z,128.00
2023-05-18T06:47:07.124Z,132.00
2023-05-18T06:48:07.166Z,132.00
2023-05-18T06:49:07.103Z,140.00
2023-05-18T06:50:07.097Z,140.00
2023-05-18T06:51:07.060Z,144.00
2023-05-18T06:52:07.201Z,148.00
2023-05-18T06:53:07.066Z,152.00
2023-05-18T06:54:07.058Z,156.00
2023-05-18T06:55:07.004Z,164.00
2023-05-18T06:56:07.049Z,168.00
2023-05-18T06:57:06.980Z,168.00
2023-05-18T06:58:06.981Z,172.00
2023-05-18T06:59:06.944Z,180.00
2023-05-18T07:00:07.013Z,180.00
2023-05-18T07:01:06.965Z,188.00
2023-05-18T07:02:06.966Z,196.00
2023-05-18T07:03:07.023Z,200.00
2023-05-18T07:04:06.985Z,208.00
2023-05-18T07:05:06.900Z,212.00
2023-05-18T07:06:06.884Z,220.00
2023-05-18T07:07:06.876Z,232.00
2023-05-18T07:08:06.878Z,240.00
2023-05-18T07:09:06.819Z,248.00
2023-05-18T07:10:06.900Z,260.00
2023-05-18T07:11:06.788Z,268.00
2023-05-18T07:12:06.794Z,276.00
2023-05-18T07:13:06.811Z,288.00
2023-05-18T07:14:06.775Z,300.00
2023-05-18T07:15:06.742Z,312.00
2023-05-18T07:16:06.784Z,328.00
2023-05-18T07:17:06.715Z,340.00
2023-05-18T07:18:06.870Z,360.00
2023-05-18T07:19:06.704Z,380.00
2023-05-18T07:20:06.698Z,396.00
2023-05-18T07:21:06.675Z,416.00
2023-05-18T07:22:06.673Z,444.00
2023-05-18T07:23:06.631Z,464.00
2023-05-18T07:24:06.674Z,492.00
2023-05-18T07:25:06.608Z,520.00
2023-05-18T07:26:06.624Z,552.00
2023-05-18T07:27:06.656Z,580.00
2023-05-18T07:28:06.604Z,612.00
2023-05-18T07:29:06.571Z,644.00
2023-05-18T07:30:06.580Z,680.00
2023-05-18T07:31:06.581Z,708.00
2023-05-18T07:32:06.545Z,740.00
2023-05-18T07:33:06.524Z,764.00
2023-05-18T07:34:06.527Z,772.00
2023-05-18T07:35:06.492Z,780.00
2023-05-18T07:36:06.506Z,784.00
2023-05-18T07:37:06.453Z,780.00
2023-05-18T07:38:06.480Z,792.00
2023-05-18T07:39:06.477Z,784.00
2023-05-18T07:40:06.444Z,788.00
2023-05-18T07:41:06.422Z,792.00
2023-05-18T07:42:06.415Z,792.00
2023-05-18T07:43:06.369Z,796.00
2023-05-18T07:44:06.394Z,804.00
2023-05-18T07:45:06.376Z,800.00
2023-05-18T07:46:06.404Z,804.00
2023-05-18T07:47:06.399Z,800.00
2023-05-18T07:48:06.352Z,804.00
2023-05-18T07:49:06.287Z,808.00
2023-05-18T07:50:06.308Z,812.00
2023-05-18T07:51:06.303Z,808.00
2023-05-18T07:52:06.301Z,808.00
2023-05-18T07:53:06.258Z,808.00
2023-05-18T07:54:07.022Z,804.00
2023-05-18T07:55:06.293Z,804.00
2023-05-18T07:56:06.228Z,804.00
2023-05-18T07:57:06.218Z,804.00
2023-05-18T07:58:06.186Z,804.00
2023-05-18T07:59:06.162Z,804.00
2023-05-18T08:00:06.187Z,804.00
2023-05-18T08:01:06.144Z,796.00
2023-05-18T08:02:06.215Z,796.00
2023-05-18T08:03:06.147Z,792.00
2023-05-18T08:04:06.312Z,792.00
2023-05-18T08:05:06.188Z,788.00
2023-05-18T08:06:06.094Z,784.00
2023-05-18T08:07:06.058Z,792.00
2023-05-18T08:08:06.994Z,788.00
2023-05-18T08:09:06.027Z,784.00
2023-05-18T08:10:06.045Z,780.00
2023-05-18T08:11:06.010Z,780.00
2023-05-18T08:12:06.010Z,780.00
2023-05-18T08:13:05.992Z,776.00
2023-05-18T08:14:05.973Z,776.00
2023-05-18T08:15:05.976Z,772.00
2023-05-18T08:16:11.824Z,772.00
2023-05-18T08:17:06.041Z,772.00
2023-05-18T08:18:06.023Z,768.00
2023-05-18T08:19:05.961Z,764.00
2023-05-18T08:20:05.896Z,760.00
2023-05-18T08:21:05.872Z,760.00
2023-05-18T08:22:05.880Z,756.00
2023-05-18T08:23:05.874Z,752.00
2023-05-18T08:24:05.896Z,748.00
2023-05-18T08:25:05.801Z,748.00
2023-05-18T08:26:05.860Z,748.00
2023-05-18T08:27:05.808Z,748.00
2023-05-18T08:28:05.795Z,748.00
2023-05-18T08:29:05.773Z,748.00
2023-05-18T08:30:05.804Z,744.00
2023-05-18T08:31:05.776Z,748.00
2023-05-18T08:32:05.834Z,744.00
2023-05-18T08:33:05.744Z,740.00
2023-05-18T08:34:05.745Z,740.00
2023-05-18T08:35:05.695Z,740.00
2023-05-18T08:36:05.709Z,732.00
2023-05-18T08:37:05.658Z,732.00
2023-05-18T08:38:05.945Z,728.00
2023-05-18T08:39:05.651Z,728.00
2023-05-18T08:40:05.664Z,728.00
2023-05-18T08:41:05.610Z,728.00
2023-05-18T08:42:05.623Z,720.00
2023-05-18T08:43:05.569Z,720.00
2023-05-18T08:44:05.632Z,716.00
2023-05-18T08:45:05.549Z,716.00
2023-05-18T08:46:05.588Z,712.00
2023-05-18T08:47:06.949Z,708.00
2023-05-18T08:48:05.592Z,708.00
2023-05-18T08:49:05.661Z,704.00
2023-05-18T08:50:05.503Z,704.00
2023-05-18T08:51:05.510Z,700.00
2023-05-18T08:52:05.517Z,700.00
2023-05-18T08:53:05.446Z,696.00
2023-05-18T08:54:05.492Z,688.00
2023-05-18T08:55:05.409Z,688.00
2023-05-18T08:56:05.485Z,688.00
2023-05-18T08:57:05.389Z,688.00
2023-05-18T08:58:05.399Z,684.00
2023-05-18T08:59:05.364Z,680.00
2023-05-18T09:00:05.398Z,684.00
2023-05-18T09:01:05.463Z,680.00
2023-05-18T09:02:05.510Z,672.00
2023-05-18T09:03:05.363Z,672.00
2023-05-18T09:04:05.370Z,672.00
2023-05-18T09:05:05.335Z,668.00
2023-05-18T09:06:05.309Z,668.00
2023-05-18T09:07:05.314Z,660.00
2023-05-18T09:08:05.281Z,660.00
2023-05-18T09:09:05.260Z,660.00
2023-05-18T09:10:05.283Z,656.00
2023-05-18T09:11:05.229Z,656.00
2023-05-18T09:12:05.241Z,656.00
2023-05-18T09:13:05.203Z,652.00
2023-05-18T09:14:05.424Z,652.00
2023-05-18T09:15:05.147Z,648.00
2023-05-18T09:16:05.188Z,648.00
2023-05-18T09:17:05.148Z,644.00
2023-05-18T09:18:05.178Z,640.00
2023-05-18T09:19:05.167Z,644.00
2023-05-18T09:20:05.104Z,636.00
2023-05-18T09:21:05.083Z,632.00
2023-05-18T09:22:05.128Z,632.00
2023-05-18T09:23:06.051Z,632.00
2023-05-18T09:24:05.065Z,632.00
2023-05-18T09:25:05.029Z,624.00
2023-05-18T09:26:05.055Z,620.00
2023-05-18T09:27:05.005Z,620.00
2023-05-18T09:28:05.054Z,620.00
2023-05-18T09:29:05.103Z,616.00
2023-05-18T09:30:04.965Z,612.00
2023-05-18T09:31:04.971Z,616.00
2023-05-18T09:32:05.159Z,608.00
2023-05-18T09:33:04.958Z,612.00
2023-05-18T09:34:04.979Z,608.00
2023-05-18T09:35:04.932Z,608.00
2023-05-18T09:36:04.919Z,604.00
2023-05-18T09:37:04.857Z,600.00
2023-05-18T09:38:04.895Z,600.00
2023-05-18T09:39:04.880Z,600.00
2023-05-18T09:40:04.921Z,596.00
2023-05-18T09:41:06.256Z,596.00
2023-05-18T09:42:04.809Z,588.00
2023-05-18T09:43:04.776Z,592.00
2023-05-18T09:44:04.819Z,584.00
2023-05-18T09:45:04.760Z,580.00
2023-05-18T09:46:04.758Z,584.00
2023-05-18T09:47:04.870Z,576.00
2023-05-18T09:48:04.789Z,576.00
2023-05-18T09:49:04.694Z,572.00
2023-05-18T09:50:04.781Z,576.00
2023-05-18T09:51:04.686Z,572.00
2023-05-18T09:52:04.706Z,568.00
2023-05-18T09:53:04.649Z,568.00
2023-05-18T09:54:04.682Z,564.00
2023-05-18T09:55:04.630Z,568.00
2023-05-18T09:56:04.656Z,584.00
2023-05-18T09:57:10.744Z,284.00
2023-05-18T09:58:04.672Z,564.00
2023-05-18T09:59:04.639Z,560.00
2023-05-18T10:00:04.611Z,564.00
2023-05-18T10:01:04.574Z,564.00
2023-05-18T10:02:04.578Z,572.00
2023-05-18T10:03:04.548Z,564.00
2023-05-18T10:04:04.574Z,564.00
2023-05-18T10:05:04.512Z,568.00
2023-05-18T10:06:04.546Z,580.00
2023-05-18T10:07:04.617Z,572.00
2023-05-18T10:08:04.480Z,560.00
2023-05-18T10:09:04.453Z,560.00
2023-05-18T10:10:05.393Z,572.00
2023-05-18T10:11:04.462Z,332.00
2023-05-18T10:12:04.449Z,332.00
2023-05-18T10:13:04.397Z,576.00
2023-05-18T10:14:04.434Z,248.00
2023-05-18T10:15:04.376Z,236.00
2023-05-18T10:16:04.466Z,252.00
2023-05-18T10:17:15.141Z,540.00
2023-05-18T10:18:04.434Z,524.00
2023-05-18T10:19:04.358Z,500.00
2023-05-18T10:20:04.296Z,248.00
2023-05-18T10:21:04.339Z,504.00
2023-05-18T10:22:04.281Z,264.00
2023-05-18T10:23:04.270Z,268.00
2023-05-18T10:24:04.279Z,428.00
2023-05-18T10:25:05.405Z,268.00
2023-05-18T10:26:04.239Z,284.00
2023-05-18T10:27:04.244Z,452.00
2023-05-18T10:28:04.250Z,436.00
2023-05-18T10:29:04.200Z,452.00
2023-05-18T10:30:04.229Z,448.00
2023-05-18T10:31:04.203Z,444.00
2023-05-18T10:32:06.831Z,460.00
2023-05-18T10:33:11.336Z,436.00
2023-05-18T10:34:04.269Z,428.00
2023-05-18T10:35:04.110Z,436.00
2023-05-18T10:36:04.118Z,408.00
2023-05-18T10:37:04.167Z,440.00
2023-05-18T10:38:04.093Z,296.00
2023-05-18T10:39:04.074Z,448.00
2023-05-18T10:40:04.143Z,448.00
2023-05-18T10:41:04.024Z,284.00
2023-05-18T10:42:04.068Z,308.00
2023-05-18T10:43:04.321Z,264.00
2023-05-18T10:44:04.164Z,424.00
2023-05-18T10:45:04.015Z,368.00
2023-05-18T10:46:04.068Z,420.00
2023-05-18T10:47:04.122Z,400.00
2023-05-18T10:48:03.968Z,392.00
2023-05-18T10:49:03.941Z,408.00
2023-05-18T10:50:03.989Z,396.00
2023-05-18T10:51:03.916Z,408.00
2023-05-18T10:52:03.952Z,384.00
2023-05-18T10:53:03.890Z,268.00
2023-05-18T10:54:03.887Z,412.00
2023-05-18T10:55:03.895Z,372.00
2023-05-18T10:56:03.871Z,312.00
2023-05-18T10:57:03.797Z,396.00
2023-05-18T10:58:03.839Z,340.00
2023-05-18T10:59:03.790Z,336.00
2023-05-18T11:00:03.824Z,340.00
2023-05-18T11:01:03.759Z,352.00
2023-05-18T11:02:03.912Z,364.00
2023-05-18T11:03:03.794Z,356.00
2023-05-18T11:04:03.751Z,340.00
2023-05-18T11:05:03.783Z,348.00
2023-05-18T11:06:03.707Z,252.00
2023-05-18T11:07:03.700Z,232.00
2023-05-18T11:08:03.683Z,248.00
2023-05-18T11:09:03.651Z,308.00
2023-05-18T11:10:03.659Z,328.00
2023-05-18T11:11:03.642Z,324.00
2023-05-18T11:12:03.658Z,328.00
2023-05-18T11:13:03.619Z,352.00
2023-05-18T11:14:03.617Z,348.00
2023-05-18T11:15:03.580Z,360.00
2023-05-18T11:16:03.639Z,348.00
2023-05-18T11:17:03.548Z,304.00
2023-05-18T11:18:03.593Z,324.00
2023-05-18T11:19:03.603Z,300.00
2023-05-18T11:20:03.520Z,228.00
2023-05-18T11:21:03.481Z,204.00
2023-05-18T11:22:03.523Z,200.00
2023-05-18T11:23:03.489Z,312.00
2023-05-18T11:24:03.494Z,296.00
2023-05-18T11:25:03.458Z,272.00
2023-05-18T11:26:03.455Z,292.00
2023-05-18T11:27:03.441Z,284.00
2023-05-18T11:28:03.452Z,292.00
2023-05-18T11:29:03.390Z,316.00
2023-05-18T11:30:14.644Z,328.00
2023-05-18T11:31:03.361Z,312.00
2023-05-18T11:32:04.822Z,324.00
2023-05-18T11:33:03.505Z,316.00
2023-05-18T11:34:03.339Z,268.00
2023-05-18T11:35:03.330Z,280.00
2023-05-18T11:36:03.344Z,280.00
2023-05-18T11:37:03.294Z,284.00
2023-05-18T11:38:03.277Z,192.00
2023-05-18T11:39:03.260Z,236.00
2023-05-18T11:40:07.766Z,204.00
2023-05-18T11:41:03.228Z,260.00
2023-05-18T11:42:03.229Z,268.00
2023-05-18T11:43:03.198Z,268.00
2023-05-18T11:44:03.242Z,260.00
2023-05-18T11:45:03.183Z,276.00
2023-05-18T11:46:03.186Z,296.00
2023-05-18T11:47:03.142Z,288.00
2023-05-18T11:48:03.217Z,276.00
2023-05-18T11:49:03.245Z,192.00
2023-05-18T11:50:03.125Z,252.00
2023-05-18T11:51:03.120Z,184.00
2023-05-18T11:52:03.186Z,184.00
2023-05-18T11:53:03.090Z,292.00
2023-05-18T11:54:03.100Z,300.00
2023-05-18T11:55:03.058Z,244.00
2023-05-18T11:56:03.054Z,280.00
2023-05-18T11:57:03.017Z,212.00
2023-05-18T11:58:03.041Z,264.00
2023-05-18T11:59:02.985Z,248.00
2023-05-18T12:00:03.020Z,244.00
2023-05-18T12:01:02.960Z,252.00
2023-05-18T12:02:02.999Z,256.00
2023-05-18T12:03:03.095Z,240.00
2023-05-18T12:04:03.056Z,180.00
2023-05-18T12:05:02.959Z,180.00
2023-05-18T12:06:02.936Z,164.00
2023-05-18T12:07:02.866Z,224.00
2023-05-18T12:08:02.892Z,220.00
2023-05-18T12:09:03.835Z,224.00
2023-05-18T12:10:02.907Z,212.00
2023-05-18T12:11:02.840Z,176.00
2023-05-18T12:12:02.860Z,236.00
2023-05-18T12:13:02.791Z,244.00
2023-05-18T12:14:02.804Z,212.00
2023-05-18T12:15:02.772Z,212.00
2023-05-18T12:16:02.825Z,200.00
2023-05-18T12:17:02.858Z,204.00
2023-05-18T12:18:02.839Z,204.00
2023-05-18T12:19:02.860Z,200.00
2023-05-18T12:20:02.726Z,200.00
2023-05-18T12:21:02.726Z,200.00
2023-05-18T12:22:02.728Z,196.00
2023-05-18T12:23:02.678Z,196.00
2023-05-18T12:24:02.737Z,192.00
2023-05-18T12:25:02.634Z,192.00
2023-05-18T12:26:02.652Z,184.00
2023-05-18T12:27:02.623Z,184.00
2023-05-18T12:28:02.618Z,188.00
2023-05-18T12:29:02.606Z,200.00
2023-05-18T12:30:02.632Z,208.00
2023-05-18T12:31:02.582Z,188.00
2023-05-18T12:32:02.568Z,184.00
2023-05-18T12:33:02.611Z,180.00
2023-05-18T12:34:02.556Z,180.00
2023-05-18T12:35:02.539Z,196.00
2023-05-18T12:36:02.506Z,184.00
2023-05-18T12:37:02.493Z,176.00
2023-05-18T12:38:03.045Z,176.00
2023-05-18T12:39:02.481Z,172.00
2023-05-18T12:40:02.463Z,172.00
2023-05-18T12:41:02.425Z,168.00
2023-05-18T12:42:02.433Z,168.00
2023-05-18T12:43:02.412Z,168.00
2023-05-18T12:44:02.431Z,168.00
2023-05-18T12:45:03.849Z,168.00
2023-05-18T12:46:02.461Z,168.00
2023-05-18T12:47:02.349Z,180.00
2023-05-18T12:48:02.550Z,172.00